Time;durP1;ratioP1;P1;durP2;ratioP2;P2;SDS_P1;SDS_P2;PMS_P1;PMS_P2;Temp;Humidity;BMP_temperature;BMP_pressure;BME280_temperature;BME280_humidity;BME280_pressure;Samples;Min_cycle;Max_cycle;Signal;HPM_P1;HPM_P2
2023/02/16 00:00:48;;;;;;;21.00;14.07;;;;;;;0.49;100.00;96805.75;5042418;28;25063;-75
2023/02/16 00:03:16;;;;;;;20.33;13.80;;;;;;;0.48;100.00;96811.69;5051313;28;24465;-75
2023/02/16 00:05:43;;;;;;;17.55;12.60;;;;;;;0.48;100.00;96811.69;5048555;28;24443;-75
2023/02/16 00:08:09;;;;;;;14.07;10.73;;;;;;;0.52;100.00;96812.50;5052841;28;24476;-77
2023/02/16 00:10:37;;;;;;;22.33;11.50;;;;;;;0.47;100.00;96807.47;5043298;28;24443;-76
2023/02/16 00:16:11;;;;;;;12.45;8.98;;;;;;;0.37;100.00;96808.38;5045232;28;24412;-76
2023/02/16 00:18:37;;;;;;;18.80;9.68;;;;;;;0.29;100.00;96813.50;5047169;28;24431;-76
2023/02/16 00:21:04;;;;;;;12.98;9.10;;;;;;;0.27;100.00;96809.31;5054047;28;24458;-76
2023/02/16 00:23:31;;;;;;;11.43;8.93;;;;;;;0.26;100.00;96808.47;5051177;28;24434;-76
2023/02/16 00:25:57;;;;;;;11.75;8.95;;;;;;;0.30;100.00;96811.81;5048720;28;24435;-76
2023/02/16 00:28:24;;;;;;;15.55;9.35;;;;;;;0.23;100.00;96811.00;5049423;28;24450;-76
2023/02/16 00:30:51;;;;;;;13.40;8.60;;;;;;;0.20;100.00;96804.22;5042368;28;24436;-76
2023/02/16 00:33:21;;;;;;;11.82;7.80;;;;;;;0.16;100.00;96805.09;5042707;28;24467;-75
2023/02/16 00:35:48;;;;;;;10.57;8.27;;;;;;;0.11;100.00;96800.88;5044592;28;24844;-76
2023/02/16 00:38:14;;;;;;;10.25;7.93;;;;;;;0.08;100.00;96804.31;5042702;28;24450;-76
2023/02/16 00:40:42;;;;;;;12.90;8.20;;;;;;;0.12;100.00;96807.69;5041961;28;24527;-76
2023/02/16 00:43:13;;;;;;;13.00;8.35;;;;;;;0.16;100.00;96807.66;5040767;28;24435;-76
2023/02/16 00:45:40;;;;;;;11.02;8.90;;;;;;;0.23;100.00;96808.47;5042113;28;24987;-75
2023/02/16 00:48:06;;;;;;;12.45;8.70;;;;;;;0.20;100.00;96801.69;5053197;28;24923;-76
2023/02/16 00:50:35;;;;;;;11.15;8.75;;;;;;;0.21;100.00;96802.53;5043365;28;24438;-76
2023/02/16 00:53:02;;;;;;;13.30;8.85;;;;;;;0.21;100.00;96805.06;5054068;28;24809;-76
2023/02/16 00:55:31;;;;;;;13.50;8.77;;;;;;;0.18;100.00;96803.38;5045668;28;24439;-76
2023/02/16 00:58:04;;;;;;;12.03;8.83;;;;;;;0.14;100.00;96803.41;5054333;28;24825;-77
2023/02/16 01:00:35;;;;;;;9.65;8.00;;;;;;;0.16;100.00;96796.63;5049513;28;24452;-76
2023/02/16 01:03:04;;;;;;;11.48;8.50;;;;;;;0.15;100.00;96800.00;5046247;28;24489;-76
2023/02/16 01:05:31;;;;;;;13.32;7.93;;;;;;;0.16;100.00;96805.09;5049811;28;24436;-76
2023/02/16 01:13:29;;;;;;;9.82;7.55;;;;;;;-0.12;100.00;96818.81;5049439;28;24517;-75
2023/02/16 01:15:56;;;;;;;8.65;6.97;;;;;;;-0.02;100.00;96812.84;5047048;28;24435;-76
2023/02/16 01:18:22;;;;;;;12.93;9.00;;;;;;;0.13;100.00;96802.56;5051110;28;24450;-76
2023/02/16 01:20:49;;;;;;;12.90;9.53;;;;;;;0.21;100.00;96795.72;5050865;28;24508;-75
2023/02/16 01:23:17;;;;;;;15.63;10.50;;;;;;;-0.05;100.00;96803.50;5050499;28;24431;-76
2023/02/16 01:25:43;;;;;;;14.43;9.63;;;;;;;-0.21;100.00;96801.88;5049997;28;24438;-76
2023/02/16 01:28:18;;;;;;;15.43;10.35;;;;;;;-0.19;100.00;96799.31;5046231;28;24446;-77
2023/02/16 01:30:44;;;;;;;12.43;9.68;;;;;;;-0.20;100.00;96798.47;5039729;28;24479;-77
2023/02/16 01:33:11;;;;;;;14.70;10.23;;;;;;;-0.35;100.00;96793.44;5044364;28;24444;-77
2023/02/16 01:35:37;;;;;;;16.17;10.47;;;;;;;-0.50;100.00;96802.81;5044225;28;24462;-77
2023/02/16 01:38:04;;;;;;;12.23;9.40;;;;;;;-0.37;100.00;96802.78;5041387;28;24454;-77
2023/02/16 01:40:42;;;;;;;15.27;11.15;;;;;;;-0.24;100.00;96801.91;5050804;28;24448;-76
2023/02/16 01:43:18;;;;;;;16.00;10.68;;;;;;;-0.83;100.00;96803.75;5044527;28;24443;-76
2023/02/16 01:45:47;;;;;;;14.13;10.07;;;;;;;-0.68;100.00;96800.31;5039847;28;24432;-75
2023/02/16 01:48:22;;;;;;;14.38;9.60;;;;;;;-0.65;100.00;96792.69;5047965;28;24451;-76
2023/02/16 01:50:54;;;;;;;17.85;10.30;;;;;;;-0.45;100.00;96799.41;5041738;28;24428;-75
2023/02/16 01:53:26;;;;;;;12.50;8.50;;;;;;;-0.53;100.00;96799.44;5044137;28;24431;-76
2023/02/16 01:56:00;;;;;;;14.40;9.45;;;;;;;-0.40;100.00;96802.81;5046725;28;24435;-75
2023/02/16 01:58:35;;;;;;;11.50;9.30;;;;;;;-0.35;100.00;96786.66;5046168;28;24443;-76
2023/02/16 02:01:43;;;;;;;13.07;9.00;;;;;;;-0.42;100.00;96794.31;5044019;28;24447;-75
2023/02/16 02:07:10;;;;;;;13.02;9.10;;;;;;;-0.28;100.00;96790.88;5050374;28;24442;-75
2023/02/16 02:09:43;;;;;;;12.07;8.25;;;;;;;-0.61;100.00;96788.44;5050547;28;24431;-76
2023/02/16 02:12:23;;;;;;;12.23;7.47;;;;;;;-0.72;100.00;96791.00;5045154;28;24423;-76
2023/02/16 02:14:50;;;;;;;13.55;8.68;;;;;;;-0.89;100.00;96798.69;5044221;28;24947;-76
2023/02/16 02:17:19;;;;;;;10.95;7.85;;;;;;;-0.96;100.00;96789.38;5049057;28;24528;-76
2023/02/16 02:19:56;;;;;;;10.35;7.70;;;;;;;-0.95;100.00;96787.69;5050235;28;24832;-76
2023/02/16 02:26:44;;;;;;;8.10;7.25;;;;;;;-0.84;100.00;96774.09;4948794;28;24462;-75
2023/02/16 02:29:48;;;;;;;12.80;7.13;;;;;;;-0.93;100.00;96771.53;5003089;28;24439;-75
2023/02/16 02:32:26;;;;;;;8.82;7.25;;;;;;;-1.08;100.00;96781.75;4960102;28;25018;-75
2023/02/16 02:35:16;;;;;;;9.93;7.75;;;;;;;-1.35;100.00;96778.38;5038831;28;24435;-77
2023/02/16 02:37:47;;;;;;;13.98;7.90;;;;;;;-1.10;100.00;96779.22;5050295;28;24494;-77
2023/02/16 02:40:22;;;;;;;9.23;7.93;;;;;;;-1.17;100.00;96769.06;5049504;28;24458;-77
2023/02/16 02:42:57;;;;;;;10.68;8.40;;;;;;;-1.53;100.00;96784.28;5047400;28;24443;-76
2023/02/16 02:45:30;;;;;;;13.40;7.00;;;;;;;-1.49;100.00;96780.06;5040193;28;24442;-76
2023/02/16 02:47:57;;;;;;;10.00;7.40;;;;;;;-1.43;100.00;96780.06;5046146;28;24443;-76
2023/02/16 02:50:37;;;;;;;8.43;6.47;;;;;;;-1.22;100.00;96771.59;5040107;28;24442;-77
2023/02/16 02:53:07;;;;;;;11.90;7.28;;;;;;;-1.03;100.00;96769.88;5049051;28;24434;-76
2023/02/16 03:01:19;;;;;;;7.97;6.80;;;;;;;-1.30;100.00;96760.56;4980422;28;25101;-76
2023/02/16 03:03:50;;;;;;;9.17;6.53;;;;;;;-1.18;100.00;96762.28;5053191;28;24496;-76
2023/02/16 03:06:21;;;;;;;9.10;6.82;;;;;;;-1.13;100.00;96758.03;5043037;28;24436;-77
2023/02/16 03:08:53;;;;;;;9.40;6.53;;;;;;;-1.19;100.00;96766.50;5049509;28;24518;-75
2023/02/16 03:14:09;;;;;;;8.60;6.10;;;;;;;-1.17;100.00;96763.97;5037732;28;24514;-76
2023/02/16 03:16:40;;;;;;;10.47;6.20;;;;;;;-1.02;100.00;96761.41;5037489;28;24472;-75
2023/02/16 03:30:14;;;;;;;11.23;6.72;;;;;;;-1.13;100.00;96763.13;5045715;28;25015;-75
2023/02/16 03:32:44;;;;;;;7.85;6.38;;;;;;;-1.04;100.00;96755.47;5035891;28;24439;-75
2023/02/16 03:35:12;;;;;;;12.23;7.20;;;;;;;-0.94;100.00;96766.47;5048262;28;24442;-76
2023/02/16 03:37:39;;;;;;;9.70;6.75;;;;;;;-1.00;100.00;96765.66;5044801;28;24846;-77
2023/02/16 03:42:53;;;;;;;7.60;6.70;;;;;;;-1.27;100.00;96769.03;5039723;28;24455;-77
2023/02/16 03:45:21;;;;;;;9.13;6.50;;;;;;;-1.23;100.00;96763.09;5049385;28;24447;-75
2023/02/16 03:47:49;;;;;;;10.18;6.28;;;;;;;-1.28;100.00;96763.97;5045152;28;24434;-75
2023/02/16 03:50:16;;;;;;;9.63;6.43;;;;;;;-1.18;100.00;96765.66;5041544;28;24806;-75
2023/02/16 03:52:42;;;;;;;7.35;6.20;;;;;;;-1.08;100.00;96762.25;5045867;28;24431;-75
2023/02/16 03:55:09;;;;;;;8.00;6.05;;;;;;;-1.01;100.00;96765.63;5038385;28;24439;-75
2023/02/16 03:57:35;;;;;;;7.72;6.18;;;;;;;-0.93;100.00;96763.91;5045264;28;24443;-75
2023/02/16 04:00:02;;;;;;;7.45;6.60;;;;;;;-0.97;100.00;96765.63;5046868;28;24455;-75
2023/02/16 04:02:29;;;;;;;10.20;6.30;;;;;;;-1.02;100.00;96769.03;5039922;28;24445;-75
2023/02/16 04:04:57;;;;;;;10.60;6.47;;;;;;;-1.03;100.00;96777.53;5046424;28;24431;-75
2023/02/16 04:07:23;;;;;;;7.80;6.07;;;;;;;-1.05;100.00;96780.03;5042987;28;24475;-76
2023/02/16 04:09:50;;;;;;;11.07;7.22;;;;;;;-1.07;100.00;96776.69;5049199;28;24505;-76
2023/02/16 04:15:00;;;;;;;9.27;6.95;;;;;;;-1.24;100.00;96771.59;5044499;28;24803;-77
2023/02/16 04:17:27;;;;;;;10.43;6.75;;;;;;;-1.23;100.00;96780.06;5046920;28;24825;-76
2023/02/16 04:19:53;;;;;;;9.80;6.32;;;;;;;-1.25;100.00;96776.69;5045845;28;24439;-76
2023/02/16 04:22:21;;;;;;;10.30;7.25;;;;;;;-1.18;100.00;96788.53;5052498;28;24435;-76
2023/02/16 04:24:48;;;;;;;8.38;6.70;;;;;;;-1.24;100.00;96779.22;5058709;28;24446;-76
2023/02/16 04:27:14;;;;;;;9.70;6.90;;;;;;;-1.19;100.00;96773.28;5050127;28;24454;-76
2023/02/16 04:29:40;;;;;;;7.55;6.75;;;;;;;-1.31;100.00;96772.44;5052505;28;24439;-76
2023/02/16 04:32:07;;;;;;;8.70;7.00;;;;;;;-1.42;100.00;96784.31;5040177;28;24431;-76
2023/02/16 04:34:33;;;;;;;9.68;6.68;;;;;;;-1.42;100.00;96778.38;5050247;28;24443;-75
2023/02/16 04:37:01;;;;;;;7.80;6.68;;;;;;;-1.43;100.00;96784.31;5041552;28;24442;-76
2023/02/16 04:39:29;;;;;;;8.57;6.35;;;;;;;-1.71;100.00;96784.28;5043509;28;24856;-76
2023/02/16 04:41:55;;;;;;;7.85;6.43;;;;;;;-1.78;100.00;96790.19;5041131;28;24456;-75
2023/02/16 04:44:22;;;;;;;10.25;6.60;;;;;;;-1.88;100.00;96789.34;5044213;28;24447;-75
2023/02/16 04:46:48;;;;;;;9.45;7.25;;;;;;;-1.92;100.00;96792.72;5046539;28;24466;-75
2023/02/16 04:49:15;;;;;;;7.00;5.90;;;;;;;-1.76;100.00;96791.03;5049285;28;24440;-76
2023/02/16 04:51:41;;;;;;;8.38;5.97;;;;;;;-1.60;100.00;96790.22;5046407;28;24443;-76
2023/02/16 04:54:08;;;;;;;8.50;6.15;;;;;;;-1.52;100.00;96788.53;5050239;28;24442;-75
2023/02/16 04:56:36;;;;;;;9.18;6.50;;;;;;;-1.43;100.00;96790.25;5045681;28;24431;-75
2023/02/16 04:59:02;;;;;;;8.63;6.68;;;;;;;-1.44;100.00;96788.56;5044001;28;24813;-77
2023/02/16 05:01:30;;;;;;;10.30;6.60;;;;;;;-1.43;100.00;96776.69;5048297;28;25120;-76
2023/02/16 05:03:57;;;;;;;7.18;6.18;;;;;;;-1.40;100.00;96782.63;5049589;28;24439;-77
2023/02/16 05:06:23;;;;;;;9.07;6.23;;;;;;;-1.33;100.00;96771.63;5047334;28;24534;-77
2023/02/16 05:08:50;;;;;;;10.00;6.40;;;;;;;-1.37;100.00;96766.50;5049889;28;24439;-76
2023/02/16 05:16:46;;;;;;;13.60;11.55;;;;;;;-1.59;100.00;96784.31;5042002;28;24442;-76
2023/02/16 05:19:12;;;;;;;15.38;10.98;;;;;;;-1.74;100.00;96786.84;5052780;28;24802;-75
2023/02/16 05:21:39;;;;;;;8.10;7.30;;;;;;;-1.84;100.00;96788.50;5050845;28;24452;-75
2023/02/16 05:24:07;;;;;;;7.50;6.70;;;;;;;-1.71;100.00;96790.22;5046420;28;24447;-75
2023/02/16 05:26:35;;;;;;;8.82;7.30;;;;;;;-1.57;100.00;96786.84;5040226;28;24466;-74
2023/02/16 05:29:04;;;;;;;8.50;7.20;;;;;;;-1.53;100.00;96784.28;5050232;28;25215;-76
2023/02/16 05:31:30;;;;;;;12.68;6.47;;;;;;;-1.56;100.00;96783.44;5051130;28;24440;-74
2023/02/16 05:33:57;;;;;;;9.82;7.35;;;;;;;-1.68;100.00;96783.44;5037249;28;24432;-76
2023/02/16 05:36:24;;;;;;;11.52;6.88;;;;;;;-1.54;100.00;96781.75;5042992;28;24431;-76
2023/02/16 05:38:51;;;;;;;9.75;6.25;;;;;;;-1.67;100.00;96790.19;5039874;28;24442;-76
2023/02/16 05:41:23;;;;;;;9.75;6.20;;;;;;;-1.70;100.00;96788.53;5045718;28;24458;-76
2023/02/16 05:43:50;;;;;;;8.55;6.88;;;;;;;-1.69;100.00;96781.75;5041226;28;24512;-75
2023/02/16 05:46:18;;;;;;;10.07;6.82;;;;;;;-1.68;100.00;96784.28;5049281;28;24442;-76
2023/02/16 05:48:44;;;;;;;8.70;7.05;;;;;;;-1.72;100.00;96793.59;5047652;28;24797;-76
2023/02/16 05:51:11;;;;;;;12.65;6.75;;;;;;;-1.90;100.00;96800.31;5050862;28;24443;-76
2023/02/16 05:53:37;;;;;;;13.07;7.95;;;;;;;-1.95;100.00;96795.25;5039572;28;24438;-76
2023/02/16 05:56:04;;;;;;;10.37;7.63;;;;;;;-1.97;100.00;96797.75;5044836;28;24443;-76
2023/02/16 05:58:31;;;;;;;9.80;7.50;;;;;;;-1.85;100.00;96791.03;5038992;28;24446;-76
2023/02/16 06:00:57;;;;;;;10.25;7.22;;;;;;;-1.76;100.00;96796.13;5046965;28;24458;-75
2023/02/16 06:03:25;;;;;;;11.65;7.13;;;;;;;-1.77;100.00;96802.06;5049374;28;25314;-76
2023/02/16 06:05:53;;;;;;;12.88;8.43;;;;;;;-1.70;100.00;96798.69;5041395;28;24443;-75
2023/02/16 06:08:19;;;;;;;10.80;7.13;;;;;;;-1.72;100.00;96801.19;5049604;28;24524;-76
2023/02/16 06:10:46;;;;;;;9.65;7.15;;;;;;;-1.73;100.00;96809.69;5049017;28;24431;-76
2023/02/16 06:13:12;;;;;;;11.70;6.35;;;;;;;-1.66;100.00;96809.69;5042306;28;24440;-75
2023/02/16 06:15:39;;;;;;;12.95;6.93;;;;;;;-1.64;100.00;96806.28;5036657;28;24454;-75
2023/02/16 06:18:06;;;;;;;10.43;6.95;;;;;;;-1.67;100.00;96818.97;5049641;28;24446;-75
2023/02/16 06:20:34;;;;;;;9.38;7.10;;;;;;;-1.57;100.00;96817.31;5046541;28;24442;-76
2023/02/16 06:23:00;;;;;;;10.82;7.10;;;;;;;-1.54;100.00;96820.72;5050367;28;24432;-76
2023/02/16 06:25:27;;;;;;;10.95;7.97;;;;;;;-1.54;100.00;96817.34;5044092;28;24446;-76
2023/02/16 06:27:55;;;;;;;10.98;8.13;;;;;;;-1.48;100.00;96813.09;5047369;28;24802;-76
2023/02/16 06:30:22;;;;;;;10.85;8.07;;;;;;;-1.35;100.00;96818.19;5048158;28;24540;-77
2023/02/16 06:32:48;;;;;;;14.07;7.57;;;;;;;-1.34;100.00;96820.72;5038887;28;24446;-76
2023/02/16 06:35:15;;;;;;;14.88;8.57;;;;;;;-1.37;100.00;96818.19;5043262;28;24451;-77
2023/02/16 06:37:43;;;;;;;11.27;8.07;;;;;;;-1.56;100.00;96819.88;5038824;28;24801;-76
2023/02/16 06:40:13;;;;;;;9.98;7.50;;;;;;;-1.60;100.00;96824.94;5041983;28;24443;-76
2023/02/16 06:42:39;;;;;;;13.98;8.25;;;;;;;-1.59;100.00;96819.88;5037811;28;24542;-76
2023/02/16 06:45:07;;;;;;;8.93;7.70;;;;;;;-1.67;100.00;96824.06;5041252;28;25012;-77
2023/02/16 06:47:34;;;;;;;11.38;8.00;;;;;;;-1.76;100.00;96826.59;5047539;28;24448;-76
2023/02/16 06:50:00;;;;;;;12.90;8.45;;;;;;;-1.81;100.00;96826.59;5049210;28;24442;-76
2023/02/16 06:52:27;;;;;;;14.52;9.57;;;;;;;-2.00;100.00;96824.84;5049562;28;24432;-77
2023/02/16 06:54:55;;;;;;;9.30;6.93;;;;;;;-2.01;100.00;96821.44;5045359;28;24536;-77
2023/02/16 06:57:21;;;;;;;9.20;6.70;;;;;;;-1.82;100.00;96827.41;5053093;28;24445;-77
2023/02/16 06:59:48;;;;;;;13.15;8.60;;;;;;;-1.72;100.00;96821.53;5044345;28;24439;-76
2023/02/16 07:02:14;;;;;;;9.23;7.30;;;;;;;-1.65;100.00;96821.53;5053337;28;24466;-78
2023/02/16 07:04:41;;;;;;;10.55;7.45;;;;;;;-1.57;100.00;96819.84;5045785;28;24443;-76
2023/02/16 07:07:08;;;;;;;9.18;7.78;;;;;;;-1.53;100.00;96832.56;5049823;28;24530;-76
2023/02/16 07:09:36;;;;;;;8.95;7.03;;;;;;;-1.61;100.00;96830.88;5038960;28;24439;-76
2023/02/16 07:12:04;;;;;;;11.90;8.25;;;;;;;-1.56;100.00;96827.50;5049311;28;24458;-76
2023/02/16 07:14:31;;;;;;;10.27;7.65;;;;;;;-1.38;100.00;96835.97;5043392;28;24424;-76
2023/02/16 07:17:02;;;;;;;10.77;8.48;;;;;;;-1.12;100.00;96835.97;5044696;28;24444;-76
2023/02/16 07:19:31;;;;;;;11.50;7.90;;;;;;;-1.10;100.00;96839.38;5048948;28;24522;-76
2023/02/16 07:21:57;;;;;;;13.50;9.45;;;;;;;-0.99;100.00;96836.00;5044694;28;24546;-75
2023/02/16 07:24:24;;;;;;;11.98;8.10;;;;;;;-0.91;100.00;96825.81;5044113;28;24446;-74
2023/02/16 07:26:50;;;;;;;9.10;7.20;;;;;;;-0.68;100.00;96830.84;5043286;28;24451;-76
2023/02/16 07:29:19;;;;;;;10.38;7.03;;;;;;;-0.47;100.00;96834.22;5051928;28;24431;-75
2023/02/16 07:31:45;;;;;;;11.07;7.50;;;;;;;-0.28;100.00;96831.59;5039663;28;24439;-76
2023/02/16 07:34:12;;;;;;;11.00;7.55;;;;;;;-0.19;100.00;96829.88;5035635;28;24451;-75
2023/02/16 07:36:38;;;;;;;8.83;6.83;;;;;;;0.02;100.00;96832.34;5048915;28;24451;-77
2023/02/16 07:39:05;;;;;;;14.70;7.50;;;;;;;0.07;100.00;96827.22;5048725;28;24435;-76
2023/02/16 07:41:31;;;;;;;9.25;7.50;;;;;;;-0.15;100.00;96829.00;5048734;28;24478;-76
2023/02/16 07:43:58;;;;;;;9.43;7.30;;;;;;;-0.16;100.00;96827.31;5037676;28;25265;-76
2023/02/16 07:46:25;;;;;;;11.82;7.00;;;;;;;0.24;100.00;96828.00;5040219;28;24793;-77
2023/02/16 07:48:52;;;;;;;8.87;7.23;;;;;;;0.62;100.00;96835.38;5039031;28;24439;-76
2023/02/16 07:51:22;;;;;;;9.37;7.20;;;;;;;0.94;100.00;96837.72;5048048;28;24438;-75
2023/02/16 07:53:49;;;;;;;9.55;7.47;;;;;;;1.26;100.00;96828.06;5036994;28;25062;-77
2023/02/16 07:56:19;;;;;;;9.43;7.32;;;;;;;1.42;100.00;96837.31;5038274;28;25004;-76
2023/02/16 07:58:46;;;;;;;11.67;8.17;;;;;;;1.54;100.00;96838.88;5040958;28;24439;-74
2023/02/16 08:01:13;;;;;;;11.57;7.95;;;;;;;1.63;100.00;96837.09;5041992;28;24506;-76
2023/02/16 08:03:41;;;;;;;13.13;7.95;;;;;;;1.76;100.00;96836.94;5046021;28;24972;-77
2023/02/16 08:06:08;;;;;;;10.77;7.93;;;;;;;1.99;100.00;96836.69;5045279;28;24790;-76
2023/02/16 08:08:35;;;;;;;10.13;8.35;;;;;;;2.29;100.00;96833.72;5046732;28;24793;-76
2023/02/16 08:11:08;;;;;;;10.68;8.10;;;;;;;2.42;100.00;96834.44;5043750;28;24436;-77
2023/02/16 08:13:35;;;;;;;12.40;8.63;;;;;;;2.53;100.00;96835.13;5043192;28;24510;-77
2023/02/16 08:16:01;;;;;;;11.27;8.73;;;;;;;2.71;100.00;96835.69;5050186;28;24446;-77
2023/02/16 08:18:29;;;;;;;14.60;9.03;;;;;;;2.61;100.00;96837.56;5045960;28;24442;-77
2023/02/16 08:20:57;;;;;;;11.07;8.55;;;;;;;2.84;100.00;96837.22;5048608;28;24439;-77
2023/02/16 08:23:24;;;;;;;10.70;9.15;;;;;;;2.94;100.00;96843.06;5050784;28;24455;-78
2023/02/16 08:25:50;;;;;;;12.65;10.20;;;;;;;2.68;100.00;96841.72;5045496;28;24462;-77
2023/02/16 08:28:18;;;;;;;15.32;11.05;;;;;;;2.57;100.00;96838.47;5051075;28;24435;-77
2023/02/16 08:30:44;;;;;;;14.95;10.93;;;;;;;2.56;100.00;96839.31;5042297;28;24443;-76
2023/02/16 08:33:11;;;;;;;15.75;11.02;;;;;;;2.65;100.00;96837.50;5041779;28;24514;-76
2023/02/16 08:35:38;;;;;;;19.58;12.52;;;;;;;2.81;100.00;96842.38;5041410;28;24446;-77
2023/02/16 08:38:07;;;;;;;17.93;12.43;;;;;;;2.92;100.00;96840.50;5043272;28;24965;-78
2023/02/16 08:40:34;;;;;;;23.02;13.48;;;;;;;3.07;100.00;96836.84;5041311;28;24578;-77
2023/02/16 08:43:00;;;;;;;21.75;13.70;;;;;;;3.23;100.00;96840.03;5043011;28;24455;-77
2023/02/16 08:45:28;;;;;;;22.35;12.57;;;;;;;3.31;100.00;96835.63;5042330;28;24440;-77
2023/02/16 08:47:54;;;;;;;25.15;13.05;;;;;;;3.54;100.00;96833.47;5041907;28;24973;-77
2023/02/16 08:50:21;;;;;;;16.67;12.90;;;;;;;3.56;100.00;96833.44;5042925;28;24794;-77
2023/02/16 08:52:47;;;;;;;15.70;13.07;;;;;;;3.85;100.00;96833.75;5044275;28;24435;-78
2023/02/16 08:55:16;;;;;;;17.80;12.68;;;;;;;4.04;100.00;96839.38;5042612;28;24439;-78
2023/02/16 08:57:42;;;;;;;18.50;12.48;;;;;;;4.09;100.00;96835.00;5042849;28;24447;-73
2023/02/16 09:02:53;;;;;;;16.20;11.90;;;;;;;4.62;100.00;96832.16;5047222;28;24447;-78
2023/02/16 09:05:20;;;;;;;17.23;11.82;;;;;;;4.54;100.00;96829.75;5045143;28;24443;-79
2023/02/16 09:07:47;;;;;;;24.27;11.80;;;;;;;4.64;100.00;96829.56;5043497;28;24443;-76
2023/02/16 09:10:15;;;;;;;18.88;12.18;;;;;;;4.88;100.00;96836.69;5043124;28;24496;-77
2023/02/16 09:12:42;;;;;;;14.68;11.38;;;;;;;4.93;100.00;96829.75;5044414;28;24424;-76
2023/02/16 09:15:10;;;;;;;18.58;10.98;;;;;;;4.97;100.00;96827.94;5042973;28;24447;-77
2023/02/16 09:17:37;;;;;;;15.23;10.65;;;;;;;5.13;100.00;96831.00;5050025;28;24450;-77
2023/02/16 09:20:04;;;;;;;15.05;10.25;;;;;;;5.28;100.00;96830.59;5049559;28;24443;-79
2023/02/16 09:22:31;;;;;;;15.13;10.93;;;;;;;5.38;100.00;96834.63;5054403;28;24588;-79
2023/02/16 09:24:58;;;;;;;12.52;9.90;;;;;;;5.59;100.00;96839.22;5057384;28;24446;-79
2023/02/16 09:27:26;;;;;;;12.52;9.50;;;;;;;5.90;100.00;96837.56;5054173;28;24447;-77
2023/02/16 09:29:53;;;;;;;13.65;10.38;;;;;;;5.96;100.00;96837.41;5046435;28;20782;-78
2023/02/16 09:32:19;;;;;;;11.35;9.35;;;;;;;6.15;100.00;96842.88;5042829;28;24440;-78
2023/02/16 09:34:48;;;;;;;15.15;10.00;;;;;;;6.45;100.00;96842.03;5050234;28;24443;-78
2023/02/16 09:37:15;;;;;;;13.40;9.57;;;;;;;6.65;97.58;96832.88;5054735;28;20763;-80
2023/02/16 09:39:41;;;;;;;13.18;9.68;;;;;;;6.71;98.31;96836.09;5049079;28;24451;-78
2023/02/16 09:42:23;;;;;;;12.23;9.75;;;;;;;6.72;96.47;96832.63;5049000;28;24455;-78
2023/02/16 09:44:57;;;;;;;14.02;10.27;;;;;;;7.03;98.10;96827.34;5046371;28;20804;-80
2023/02/16 09:47:28;;;;;;;14.13;10.13;;;;;;;7.25;92.83;96834.41;5044617;28;20716;-77
2023/02/16 09:49:57;;;;;;;13.00;9.10;;;;;;;7.55;92.82;96823.97;5050086;28;20713;-78
2023/02/16 09:52:30;;;;;;;15.40;9.43;;;;;;;7.73;91.27;96823.34;5051483;28;20816;-76
2023/02/16 09:54:58;;;;;;;13.27;9.60;;;;;;;7.91;88.91;96809.81;5045320;28;20685;-76
2023/02/16 09:57:40;;;;;;;11.35;9.27;;;;;;;8.17;89.15;96815.75;5048467;28;21114;-76
2023/02/16 10:00:21;;;;;;;13.20;9.45;;;;;;;8.08;87.45;96808.34;5044094;28;20798;-76
2023/02/16 10:02:53;;;;;;;13.13;9.55;;;;;;;8.01;89.36;96815.47;5049197;28;24542;-76
2023/02/16 10:05:25;;;;;;;14.52;9.40;;;;;;;8.18;87.69;96820.84;5048490;28;20725;-76
2023/02/16 10:08:02;;;;;;;12.65;9.70;;;;;;;8.32;87.80;96815.19;5054589;28;20865;-76
2023/02/16 10:10:42;;;;;;;11.20;9.32;;;;;;;8.33;87.56;96811.72;5050330;28;24806;-75
2023/02/16 10:13:19;;;;;;;11.93;8.95;;;;;;;8.54;87.49;96815.25;5045277;28;24446;-76
2023/02/16 10:15:49;;;;;;;13.82;10.00;;;;;;;8.56;85.39;96813.44;5046381;28;24978;-76
2023/02/16 10:18:22;;;;;;;12.57;9.88;;;;;;;8.69;85.87;96822.41;5044485;28;24501;-76
2023/02/16 10:20:52;;;;;;;16.02;9.75;;;;;;;8.79;85.56;96822.91;5045420;28;24996;-77
2023/02/16 10:23:31;;;;;;;12.77;9.90;;;;;;;8.86;85.31;96813.16;5048367;28;24483;-76
2023/02/16 10:26:05;;;;;;;13.40;8.63;;;;;;;9.24;82.34;96821.16;5051856;28;24526;-77
2023/02/16 10:28:37;;;;;;;14.03;8.90;;;;;;;9.67;80.44;96818.44;5044876;28;24447;-78
2023/02/16 10:31:13;;;;;;;14.60;8.98;;;;;;;10.04;77.73;96819.44;5036940;28;24802;-77
2023/02/16 10:33:43;;;;;;;12.80;8.48;;;;;;;10.10;74.36;96815.75;5042477;28;24973;-78
2023/02/16 10:36:27;;;;;;;8.45;7.53;;;;;;;10.24;72.80;96815.16;5051040;28;24439;-77
2023/02/16 10:39:02;;;;;;;9.98;7.30;;;;;;;10.16;70.32;96805.16;5044922;28;25072;-77
2023/02/16 10:41:32;;;;;;;9.70;7.73;;;;;;;10.12;70.56;96807.03;5049305;28;24438;-77
2023/02/16 10:44:04;;;;;;;8.40;6.40;;;;;;;10.53;71.14;96806.06;5043571;28;24475;-77
2023/02/16 10:46:38;;;;;;;8.57;6.90;;;;;;;11.16;66.20;96793.59;5044552;28;24431;-77
2023/02/16 10:49:05;;;;;;;14.57;7.10;;;;;;;11.18;65.67;96806.47;5049978;28;24442;-79
2023/02/16 10:51:36;;;;;;;10.18;7.40;;;;;;;11.26;66.50;96793.97;5047126;28;24797;-77
2023/02/16 10:54:07;;;;;;;12.68;7.03;;;;;;;11.14;65.87;96798.00;5043384;28;24424;-77
2023/02/16 10:56:48;;;;;;;9.25;6.82;;;;;;;10.81;66.03;96788.34;5049896;28;24426;-78
2023/02/16 10:59:18;;;;;;;9.20;6.55;;;;;;;10.72;66.20;96793.13;5045503;28;24539;-78
2023/02/16 11:01:48;;;;;;;12.93;6.70;;;;;;;10.87;66.63;96788.06;5042797;28;24439;-79
2023/02/16 11:04:36;;;;;;;11.00;5.72;;;;;;;10.94;64.53;96787.75;5050558;28;24427;-79
2023/02/16 11:07:05;;;;;;;10.00;5.40;;;;;;;11.07;66.26;96783.66;5046982;28;24806;-79
2023/02/16 11:09:32;;;;;;;6.65;4.65;;;;;;;11.08;62.76;96787.91;5055857;28;24448;-78
2023/02/16 11:11:59;;;;;;;6.47;4.40;;;;;;;11.25;62.99;96785.34;5039372;28;24444;-78
2023/02/16 11:14:29;;;;;;;6.75;4.00;;;;;;;11.37;61.24;96776.94;5051361;28;24972;-81
2023/02/16 11:17:11;;;;;;;8.95;4.10;;;;;;;11.40;61.10;96781.16;5046883;28;24976;-79
2023/02/16 11:19:38;;;;;;;4.22;3.45;;;;;;;11.42;60.18;96779.34;5048140;28;24485;-75
2023/02/16 11:22:07;;;;;;;5.30;3.50;;;;;;;11.67;60.86;96775.47;5049265;28;24438;-76
2023/02/16 11:24:36;;;;;;;21.67;4.65;;;;;;;11.38;61.34;96770.88;5056895;28;24516;-76
2023/02/16 11:27:06;;;;;;;4.63;3.80;;;;;;;11.29;61.10;96775.66;5048522;28;24435;-76
2023/02/16 11:29:34;;;;;;;5.05;3.78;;;;;;;11.33;61.98;96772.00;5048581;28;24454;-76
2023/02/16 11:32:07;;;;;;;4.07;2.47;;;;;;;11.34;61.16;96766.72;5045522;28;24844;-76
2023/02/16 11:34:35;;;;;;;7.03;3.47;;;;;;;11.33;62.00;96762.47;5048178;28;24438;-76
2023/02/16 11:37:06;;;;;;;9.20;3.38;;;;;;;11.44;62.29;96759.34;5041562;28;25347;-76
2023/02/16 11:39:36;;;;;;;5.43;3.10;;;;;;;11.49;61.64;96751.31;5045860;28;24793;-76
2023/02/16 11:42:06;;;;;;;6.28;3.08;;;;;;;11.77;62.08;96753.34;5045615;28;24450;-76
2023/02/16 11:44:36;;;;;;;3.90;2.30;;;;;;;11.73;60.92;96757.84;5048047;28;24500;-75
2023/02/16 11:47:06;;;;;;;8.03;2.97;;;;;;;11.83;59.48;96751.31;5042199;28;24436;-76
2023/02/16 11:49:36;;;;;;;6.63;2.88;;;;;;;11.88;59.26;96753.66;5051414;28;24521;-78
2023/02/16 11:52:19;;;;;;;3.63;2.47;;;;;;;12.00;59.19;96747.81;5060749;28;24437;-78
2023/02/16 11:54:48;;;;;;;5.55;2.42;;;;;;;12.02;59.10;96742.56;5044970;28;24831;-76
2023/02/16 11:57:22;;;;;;;3.80;2.40;;;;;;;12.06;58.62;96736.28;5047624;28;24439;-77
2023/02/16 11:59:48;;;;;;;4.03;2.25;;;;;;;12.22;59.31;96752.69;5035756;28;24446;-76
2023/02/16 12:02:35;;;;;;;5.00;2.83;;;;;;;12.11;57.59;96742.88;5045950;28;24793;-76
2023/02/16 12:05:19;;;;;;;4.10;2.58;;;;;;;12.21;57.39;96743.25;5043092;28;25182;-76
2023/02/16 12:07:54;;;;;;;4.15;2.38;;;;;;;12.19;57.13;96733.84;5049276;28;24497;-77
2023/02/16 12:10:26;;;;;;;4.80;2.33;;;;;;;12.13;57.87;96740.22;5063066;28;24435;-76
2023/02/16 12:13:01;;;;;;;3.72;1.88;;;;;;;12.19;57.87;96734.69;5065006;28;24797;-76
2023/02/16 12:15:37;;;;;;;4.57;2.38;;;;;;;12.18;57.75;96725.22;5048559;28;24543;-77
2023/02/16 12:18:24;;;;;;;7.78;2.30;;;;;;;12.24;57.83;96718.88;5055136;28;25034;-77
2023/02/16 12:20:58;;;;;;;3.92;2.40;;;;;;;12.25;56.97;96723.97;5043482;28;24447;-77
2023/02/16 12:23:39;;;;;;;5.80;2.55;;;;;;;12.13;57.19;96721.22;5053934;28;24447;-79